• Join FlightAware (Why Join?)
  • Login
  • US Flag 
04:06PM EDT


 

Airport Tracker/Info


-or-


 

Live Flight TrackerFlight Track Log ✈ ASQ6041 ✈ 31-Aug-2013 ✈ KLNK - KDEN

Flight Track Log - Related Links

Times and Time Zones

All times are in EDT time to prevent confusion due to time zone crossing. See the ASQ6041 flight status page for this flight to view local times or setup timezone preferences in your user account.

Time Position Orientation Groundspeed Altitude Reporting Facility
EDT Latitude Longitude Course Direction KTS MPH feet Rate Location/Type
02:11PM 40.8869 -96.8292 299° West 226 260 3,600  Level Minneapolis Center
02:13PM 40.8797 -96.9631 266° West 256 295 6,900 2,340 Climbing Minneapolis Center
02:14PM 40.8501 -97.1328 263° West  Level FlightAware Approximate
02:14PM 40.8633 -97.0600 257° West 263 303 9,500  Level Minneapolis Center
02:15PM 40.8223 -97.2538 253° West  Level FlightAware Approximate
02:15PM 40.8608 -97.1664 268° West 273 314 10,700  Level Minneapolis Center
02:16PM 40.7956 -97.3751 257° West  Level FlightAware Approximate
02:16PM 40.8617 -97.2958 271° West 315 362 12,000  Level Minneapolis Center
02:17PM 40.8614 -97.4267 270° West 341 392 14,000 1,800 Climbing Minneapolis Center
02:18PM 40.8597 -97.5558 269° West 349 402 15,800 1,920 Climbing Minneapolis Center
02:19PM 40.8581 -97.7128 269° West 353 406 18,000 1,920 Climbing Minneapolis Center
02:20PM 40.8572 -97.8433 270° West 355 409 19,800 1,740 Climbing Minneapolis Center
02:21PM 40.8553 -97.9728 269° West 353 406 21,600 1,740 Climbing Minneapolis Center
02:22PM 40.8528 -98.1011 269° West 351 404 23,400 1,680 Climbing Minneapolis Center
02:23PM 40.8508 -98.2272 269° West 348 400 25,100 1,560 Climbing Minneapolis Center
02:24PM 40.8481 -98.3522 268° West 344 396 26,700 1,440 Climbing Minneapolis Center
02:25PM 40.8467 -98.4778 269° West 344 396 28,100 1,560 Climbing Minneapolis Center
02:26PM 40.8436 -98.6336 269° West 352 405 30,000 1,860 Climbing Minneapolis Center
02:27PM 40.8403 -98.7581 268° West 345 397 32,000 1,680 Climbing Minneapolis Center
02:28PM 40.8383 -98.8767 269° West 330 380 33,500 960 Climbing Minneapolis Center
02:29PM 40.8353 -98.9964 268° West 326 375 34,000 240 Climbing Minneapolis Center
02:30PM 40.8322 -99.1403 268° West 356 410 34,000  Level Minneapolis Center
02:31PM 40.8286 -99.2569 268° West 384 442 34,000 60 Level Denver Center
02:32PM 40.8256 -99.4103 269° West 411 473 34,200 540 Climbing Denver Center
02:33PM 40.8219 -99.5639 268° West 417 480 35,200 840 Climbing Denver Center
02:34PM 40.8172 -99.7128 268° West 409 471 36,000 360 Climbing Denver Center
02:35PM 40.8125 -99.8886 268° West 414 476 36,000  Level Denver Center
02:36PM 40.8078 -100.0361 268° West 420 483 36,000  Level Denver Center
02:37PM 40.8019 -100.2067 267° West 416 479 36,000  Level Denver Center
02:38PM 40.7975 -100.3514 268° West 414 476 36,000  Level Denver Center
02:40PM 40.7914 -100.5200 267° West 411 473 36,000  Level Denver Center
02:41PM 40.7858 -100.6411 267° West 412 474 36,000  Level Denver Center
02:42PM 40.7567 -100.8233 258° West 438 504 36,000  Level Denver Center
02:43PM 40.7350 -100.9681 259° West 420 483 36,000  Level Denver Center
02:44PM 40.7067 -101.1381 258° West 423 487 36,000  Level Denver Center
02:45PM 40.6814 -101.2839 257° West 426 490 36,000  Level Denver Center
02:46PM 40.6519 -101.4525 257° West 424 488 36,000 -300 Level Denver Center
02:47PM 40.6261 -101.5983 257° West 426 490 35,400 -840 Descending Denver Center
02:48PM 40.5961 -101.7644 257° West 420 483 34,300 -720 Descending Denver Center
02:49PM 40.5708 -101.9058 257° West 416 479 34,000 -180 Descending Denver Center
02:50PM 40.5389 -102.0694 256° West 415 478 34,000  Level Denver Center
02:51PM 40.5131 -102.2136 257° West 422 486 34,000  Level Denver Center
02:52PM 40.4856 -102.3578 256° West 425 489 34,000  Level Denver Center
02:53PM 40.4556 -102.5256 257° West 423 487 34,000  Level Denver Center
02:54PM 40.4256 -102.6858 256° West 427 491 34,000  Level Denver Center
02:55PM 40.3975 -102.8356 256° West 424 488 34,000 -180 Level Denver Center
02:56PM 40.3681 -102.9869 256° West 429 494 33,700 -1,140 Descending Denver Center
02:57PM 40.3392 -103.1369 256° West 426 490 31,700 -1,860 Descending Denver Center
02:58PM 40.3114 -103.2856 256° West 423 487 29,900 -2,400 Descending Denver Center
02:59PM 40.2836 -103.4253 255° West 401 461 26,800 -3,420 Descending Denver Center
03:00PM 40.2581 -103.5606 256° West 385 443 22,900 -3,240 Descending Denver Center
03:01PM 40.2272 -103.7161 255° West 371 427 20,200 -1,440 Descending Denver Center
03:02PM 40.2000 -103.8447 255° West 365 420 20,000 -840 Descending Denver Center
03:03PM 40.1575 -103.9472 242° Southwest 323 372 18,600 -1,620 Descending Denver Center
03:04PM 40.1097 -104.0481 238° Southwest 329 379 16,800 -1,620 Descending Denver Center
03:05PM 40.0603 -104.1561 239° Southwest 321 369 15,400 -1,200 Descending Denver Center
03:06PM 40.0156 -104.2519 239° Southwest 310 357 14,400 -1,020 Descending Denver Center
03:07PM 39.9700 -104.3494 239° Southwest 316 364 13,400 -960 Descending Denver Center
03:08PM 39.9206 -104.4536 238° Southwest 314 361 12,500 -1,080 Descending Denver Center
03:09PM 39.8500 -104.4997 207° Southwest 289 333 11,300 -1,080 Descending Denver Center
03:10PM 39.7764 -104.5019 181° South 256 295 10,400 -1,200 Descending Denver Center
03:11PM 39.7069 -104.5033 181° South 252 290 8,900 -1,200 Descending Denver Center
03:12PM 39.6828 -104.5828 248° West 242 278 8,000 -900 Descending Denver Center
03:13PM 39.7317 -104.6356 320° Northwest 234 269 7,100 -720 Descending Denver Center
03:15PM 39.7783 -104.6419 354° North 165 190 6,400 -720 Descending Denver Center
03:16PM 39.8308 -104.6414 360° North 145 167 5,500 -900 Descending Denver Center